Time;durP1;ratioP1;P1;durP2;ratioP2;P2;SDS_P1;SDS_P2;PMS_P1;PMS_P2;Temp;Humidity;BMP_temperature;BMP_pressure;BME280_temperature;BME280_humidity;BME280_pressure;Samples;Min_cycle;Max_cycle;Signal;HPM_P1;HPM_P2
2021/12/17 00:01:05;;;;;;;33.28;16.08;;;8.80;99.90;;;;;;5092407;28;20081;-71
2021/12/17 00:03:43;;;;;;;36.15;16.58;;;8.80;99.90;;;;;;5093172;28;20511;-71
2021/12/17 00:08:39;;;;;;;30.85;15.15;;;8.70;99.90;;;;;;5112156;28;20044;-71
2021/12/17 00:11:06;;;;;;;32.45;16.05;;;8.70;99.90;;;;;;5092700;28;20551;-71
2021/12/17 00:13:33;;;;;;;31.30;15.32;;;8.80;99.90;;;;;;5095009;28;20721;-71
2021/12/17 00:15:59;;;;;;;31.45;16.20;;;8.80;99.90;;;;;;5110990;28;20047;-70
2021/12/17 00:18:34;;;;;;;32.00;15.73;;;8.80;99.90;;;;;;5095203;28;20403;-70
2021/12/17 00:48:36;;;;;;;33.67;17.00;;;8.70;99.90;;;;;;5110157;28;20490;-70
2021/12/17 00:54:07;;;;;;;39.17;18.92;;;8.70;99.90;;;;;;5111434;28;20138;-71
2021/12/17 00:56:33;;;;;;;46.40;18.25;;;8.70;99.90;;;;;;5145577;27;20036;-70
2021/12/17 00:58:58;;;;;;;45.40;19.52;;;8.70;99.90;;;;;;5092613;28;20035;-70
2021/12/17 01:01:25;;;;;;;34.53;17.25;;;8.70;99.90;;;;;;5093252;28;20062;-70
2021/12/17 01:03:51;;;;;;;35.85;17.80;;;8.80;99.90;;;;;;5094616;28;20487;-70
2021/12/17 01:06:19;;;;;;;37.40;17.55;;;8.80;99.90;;;;;;5093604;28;20560;-70
2021/12/17 01:08:45;;;;;;;39.13;18.80;;;8.80;99.90;;;;;;5094439;28;20036;-71
2021/12/17 01:11:11;;;;;;;37.13;17.45;;;8.80;99.90;;;;;;5108697;28;20560;-70
2021/12/17 01:13:38;;;;;;;39.08;17.60;;;8.80;99.90;;;;;;5108766;28;20126;-70
2021/12/17 01:16:04;;;;;;;42.05;18.10;;;8.80;99.90;;;;;;5094487;28;20051;-70
2021/12/17 01:18:54;;;;;;;38.80;17.77;;;8.80;99.90;;;;;;5112736;28;20110;-70
2021/12/17 01:21:31;;;;;;;38.97;17.67;;;8.80;99.90;;;;;;5113343;28;20143;-70
2021/12/17 01:24:09;;;;;;;36.00;16.52;;;8.70;99.90;;;;;;5113788;28;20043;-71
2021/12/17 01:43:03;;;;;;;28.73;13.63;;;8.70;99.90;;;;;;5115053;28;20067;-70
2021/12/17 01:45:34;;;;;;;29.67;14.15;;;8.70;99.90;;;;;;5113413;28;20039;-70
2021/12/17 01:48:02;;;;;;;29.27;14.07;;;8.70;99.90;;;;;;5115294;28;20027;-70
2021/12/17 01:56:16;;;;;;;27.70;12.65;;;8.70;99.90;;;;;;5109910;28;20072;-70
2021/12/17 02:01:27;;;;;;;26.27;12.88;;;8.70;99.90;;;;;;5148110;27;20040;-70
2021/12/17 02:03:55;;;;;;;26.45;13.75;;;8.70;99.90;;;;;;5097548;28;20038;-70
2021/12/17 02:06:22;;;;;;;27.52;12.77;;;8.70;99.90;;;;;;5114069;28;20379;-70
2021/12/17 02:08:49;;;;;;;25.92;11.70;;;8.80;99.90;;;;;;5096500;28;20130;-70
2021/12/17 02:20:28;;;;;;;24.73;11.48;;;8.80;99.90;;;;;;5015152;28;20425;-70
2021/12/17 02:23:20;;;;;;;22.85;9.70;;;8.80;99.90;;;;;;5072723;28;20139;-70
2021/12/17 02:31:30;;;;;;;20.33;10.00;;;8.80;99.90;;;;;;5108850;28;20397;-70
2021/12/17 02:34:00;;;;;;;20.80;9.95;;;8.70;99.90;;;;;;5096781;28;20377;-71
2021/12/17 02:36:30;;;;;;;22.45;9.68;;;8.70;99.90;;;;;;5113433;28;20461;-70
2021/12/17 02:47:07;;;;;;;17.77;8.65;;;8.80;99.90;;;;;;5113997;28;20035;-71
2021/12/17 02:49:34;;;;;;;18.77;8.52;;;8.80;99.90;;;;;;5111438;28;20044;-71
2021/12/17 02:52:03;;;;;;;17.90;9.10;;;8.80;99.90;;;;;;5093946;28;20031;-71
2021/12/17 02:54:30;;;;;;;16.73;8.40;;;8.80;99.90;;;;;;5111439;28;20453;-71
2021/12/17 02:56:57;;;;;;;17.73;8.73;;;8.80;99.90;;;;;;5092597;28;20035;-71
2021/12/17 02:59:23;;;;;;;17.98;9.02;;;8.80;99.90;;;;;;5113665;28;20043;-71
2021/12/17 03:01:50;;;;;;;19.73;9.15;;;8.80;99.90;;;;;;5095900;28;20036;-70
2021/12/17 03:04:19;;;;;;;16.92;8.57;;;8.80;99.90;;;;;;5112598;28;20165;-71
2021/12/17 03:06:45;;;;;;;18.48;8.15;;;8.70;99.90;;;;;;5112039;28;20027;-70
2021/12/17 03:09:11;;;;;;;18.48;8.70;;;8.70;99.90;;;;;;5096671;28;20381;-70
2021/12/17 03:11:37;;;;;;;18.70;8.98;;;8.70;99.90;;;;;;5111689;28;20118;-71
2021/12/17 03:14:03;;;;;;;17.38;8.80;;;8.70;99.90;;;;;;5110984;28;20391;-70
2021/12/17 03:16:35;;;;;;;17.85;8.60;;;8.70;99.90;;;;;;5112898;28;20051;-70
2021/12/17 03:19:10;;;;;;;18.45;8.43;;;8.70;99.90;;;;;;5094805;28;20031;-70
2021/12/17 03:24:22;;;;;;;16.95;8.52;;;8.80;99.90;;;;;;5111654;28;20044;-70
2021/12/17 03:26:48;;;;;;;17.95;8.60;;;8.70;99.90;;;;;;5112222;28;20494;-70
2021/12/17 03:29:15;;;;;;;16.60;8.27;;;8.80;99.90;;;;;;5111374;28;20032;-70
2021/12/17 03:31:40;;;;;;;15.60;8.43;;;8.70;99.90;;;;;;5094972;28;20483;-70
2021/12/17 03:34:17;;;;;;;16.65;7.95;;;8.70;99.90;;;;;;5109736;28;20042;-70
2021/12/17 03:36:47;;;;;;;15.48;8.32;;;8.80;99.90;;;;;;5112580;28;20515;-70
2021/12/17 03:39:12;;;;;;;16.73;8.38;;;8.80;99.90;;;;;;5110998;28;20229;-71
2021/12/17 03:41:40;;;;;;;16.67;8.25;;;8.80;99.90;;;;;;5093542;28;20547;-70
2021/12/17 03:44:07;;;;;;;16.75;8.70;;;8.70;99.90;;;;;;5094498;28;20441;-71
2021/12/17 03:46:33;;;;;;;16.02;8.38;;;8.70;99.90;;;;;;5095678;28;20027;-71
2021/12/17 03:48:58;;;;;;;17.00;8.40;;;8.70;99.90;;;;;;5092788;28;20070;-71
2021/12/17 03:51:24;;;;;;;15.70;8.13;;;8.70;99.90;;;;;;5112571;28;20035;-71
2021/12/17 03:53:53;;;;;;;16.95;8.38;;;8.70;99.90;;;;;;5109525;28;20036;-71
2021/12/17 03:56:19;;;;;;;18.77;8.18;;;8.70;99.90;;;;;;5108989;28;20051;-70
2021/12/17 03:58:45;;;;;;;15.07;7.82;;;8.60;99.90;;;;;;5092983;28;20046;-71
2021/12/17 04:01:11;;;;;;;15.25;7.55;;;8.60;99.90;;;;;;5111658;28;20027;-71
2021/12/17 04:03:37;;;;;;;15.45;7.72;;;8.70;99.90;;;;;;5091100;28;20095;-71
2021/12/17 04:06:03;;;;;;;14.85;7.70;;;8.60;99.90;;;;;;5109494;28;20036;-71
2021/12/17 04:08:29;;;;;;;14.15;8.02;;;8.70;99.90;;;;;;5091119;28;20399;-70
2021/12/17 04:11:03;;;;;;;14.38;7.25;;;8.70;99.90;;;;;;5090176;28;20165;-70
2021/12/17 04:13:33;;;;;;;14.88;7.70;;;8.70;99.90;;;;;;5110777;28;20047;-70
2021/12/17 04:16:03;;;;;;;14.27;7.32;;;8.70;99.90;;;;;;5093444;28;20498;-70
2021/12/17 04:18:30;;;;;;;14.02;6.90;;;8.60;99.90;;;;;;5093498;28;20476;-70
2021/12/17 04:20:56;;;;;;;12.45;6.47;;;8.60;99.90;;;;;;5112017;28;20027;-70
2021/12/17 04:23:23;;;;;;;14.45;7.63;;;8.60;99.90;;;;;;5108930;28;20081;-70
2021/12/17 04:25:49;;;;;;;11.10;6.18;;;8.60;99.90;;;;;;5091137;28;20404;-70
2021/12/17 04:28:16;;;;;;;11.73;6.55;;;8.50;99.90;;;;;;5094965;28;20046;-70
2021/12/17 04:30:42;;;;;;;14.25;6.75;;;8.50;99.90;;;;;;5107582;28;20086;-70
2021/12/17 04:33:08;;;;;;;14.68;7.15;;;8.50;99.90;;;;;;5108230;28;20034;-70
2021/12/17 04:35:33;;;;;;;13.40;6.25;;;8.50;99.90;;;;;;5110985;28;20134;-70
2021/12/17 04:38:00;;;;;;;11.73;5.88;;;8.50;99.90;;;;;;5109464;28;20131;-70
2021/12/17 04:40:27;;;;;;;11.35;6.47;;;8.40;99.90;;;;;;5100171;28;20035;-71
2021/12/17 04:45:22;;;;;;;11.45;5.53;;;8.50;99.90;;;;;;5088367;28;20060;-70
2021/12/17 04:58:55;;;;;;;11.70;5.90;;;8.50;99.90;;;;;;5106050;28;20400;-71
2021/12/17 05:01:21;;;;;;;13.48;6.40;;;8.40;99.90;;;;;;5107212;28;20034;-70
2021/12/17 05:03:46;;;;;;;12.20;6.13;;;8.40;99.90;;;;;;5107737;28;20062;-70
2021/12/17 05:06:12;;;;;;;12.70;6.00;;;8.40;99.90;;;;;;5091622;28;20028;-71
2021/12/17 05:08:37;;;;;;;11.38;5.90;;;8.40;99.90;;;;;;5142510;27;20480;-71
2021/12/17 05:21:37;;;;;;;10.55;5.35;;;8.40;99.90;;;;;;5104534;28;20096;-70
2021/12/17 05:24:03;;;;;;;12.88;6.40;;;8.40;99.90;;;;;;5108363;28;20027;-71
2021/12/17 05:26:29;;;;;;;10.77;5.60;;;8.30;99.90;;;;;;5109000;28;20540;-70
2021/12/17 05:28:55;;;;;;;10.15;5.72;;;8.30;99.90;;;;;;5092820;28;20035;-71
2021/12/17 05:31:22;;;;;;;11.10;5.28;;;8.30;99.90;;;;;;5091408;28;20031;-70
2021/12/17 05:33:49;;;;;;;11.80;5.50;;;8.30;99.90;;;;;;5111264;28;20045;-70
2021/12/17 05:36:15;;;;;;;12.50;5.30;;;8.30;99.90;;;;;;5091146;28;20484;-70
2021/12/17 05:38:40;;;;;;;10.43;5.15;;;8.30;99.90;;;;;;5123461;28;20063;-71
2021/12/17 05:41:06;;;;;;;9.68;5.07;;;8.40;99.90;;;;;;5105430;28;20554;-71
2021/12/17 05:43:36;;;;;;;12.23;5.57;;;8.30;99.90;;;;;;5090016;28;20398;-70
2021/12/17 05:46:08;;;;;;;10.15;5.50;;;8.30;99.90;;;;;;5109019;28;20071;-70
2021/12/17 05:48:34;;;;;;;;;;;8.20;99.90;;;;;;5093628;28;20484;-71
2021/12/17 05:51:05;;;;;;;12.73;6.00;;;8.20;99.90;;;;;;5107032;28;19966;-71
2021/12/17 05:53:30;;;;;;;12.60;6.43;;;8.20;99.90;;;;;;5090144;28;20515;-71
2021/12/17 05:55:57;;;;;;;12.02;6.45;;;8.20;99.90;;;;;;5128053;28;20102;-70
2021/12/17 05:58:23;;;;;;;15.73;6.53;;;8.20;99.90;;;;;;5090602;28;20039;-71
2021/12/17 06:00:49;;;;;;;12.88;6.78;;;8.10;99.90;;;;;;5108900;28;20039;-70
2021/12/17 06:03:15;;;;;;;11.40;5.97;;;8.10;99.90;;;;;;5109640;28;20035;-71
2021/12/17 06:05:40;;;;;;;11.40;6.22;;;8.20;99.90;;;;;;5108334;28;20108;-71
2021/12/17 06:08:06;;;;;;;11.50;6.18;;;8.20;99.90;;;;;;5096734;28;20504;-71
2021/12/17 06:10:32;;;;;;;13.65;6.80;;;8.20;99.90;;;;;;5109875;28;20399;-71
2021/12/17 06:12:58;;;;;;;13.30;6.60;;;8.20;99.90;;;;;;5095355;28;20039;-71
2021/12/17 06:15:25;;;;;;;13.77;6.82;;;8.20;99.90;;;;;;5108709;28;20059;-71
2021/12/17 06:17:52;;;;;;;13.00;6.63;;;8.20;99.90;;;;;;5097184;28;20154;-71
2021/12/17 06:20:19;;;;;;;11.90;6.68;;;8.20;99.90;;;;;;5111624;28;20118;-71
2021/12/17 06:22:46;;;;;;;12.63;6.22;;;8.20;99.90;;;;;;5094832;28;20035;-71
2021/12/17 06:25:12;;;;;;;11.50;6.22;;;8.20;99.90;;;;;;5110850;28;20039;-71
2021/12/17 06:27:39;;;;;;;15.02;6.53;;;8.20;99.90;;;;;;5094486;28;20046;-71
2021/12/17 06:30:09;;;;;;;12.82;6.50;;;8.20;99.90;;;;;;5112844;28;20127;-71
2021/12/17 06:32:35;;;;;;;15.15;7.30;;;8.20;99.90;;;;;;5113106;28;20066;-71
2021/12/17 06:35:01;;;;;;;18.60;7.72;;;8.20;99.90;;;;;;5107281;28;20452;-70
2021/12/17 06:37:26;;;;;;;14.68;7.10;;;8.10;99.90;;;;;;5096927;28;20560;-71
2021/12/17 06:39:52;;;;;;;14.50;7.50;;;8.20;99.90;;;;;;5113250;28;20118;-71
2021/12/17 06:42:18;;;;;;;14.63;7.53;;;8.20;99.90;;;;;;5110016;28;20050;-71
2021/12/17 06:44:46;;;;;;;14.10;6.97;;;8.10;99.90;;;;;;5094664;28;20069;-71
2021/12/17 07:00:18;;;;;;;12.60;6.68;;;8.20;99.90;;;;;;5109826;28;20403;-71
2021/12/17 07:10:42;;;;;;;14.70;7.53;;;8.20;99.90;;;;;;5107271;28;20399;-71
2021/12/17 07:32:20;;;;;;;12.13;6.47;;;8.20;99.90;;;;;;5079852;28;20085;-71
2021/12/17 07:39:52;;;;;;;12.98;7.18;;;8.10;99.90;;;;;;5107875;28;20048;-71
2021/12/17 07:42:17;;;;;;;15.23;7.85;;;8.20;99.90;;;;;;5134907;27;20031;-71
2021/12/17 07:44:43;;;;;;;16.27;7.85;;;8.10;99.90;;;;;;5107237;28;20395;-71
2021/12/17 07:47:08;;;;;;;13.90;7.57;;;8.20;99.90;;;;;;5110970;28;20134;-71
2021/12/17 07:49:34;;;;;;;14.70;8.32;;;8.20;99.90;;;;;;5111129;28;20047;-71
2021/12/17 07:52:00;;;;;;;14.60;7.80;;;8.10;99.90;;;;;;5109823;28;20495;-71
2021/12/17 07:54:25;;;;;;;15.00;8.45;;;8.20;99.90;;;;;;5110852;28;20156;-71
2021/12/17 07:56:51;;;;;;;15.38;8.18;;;8.20;99.90;;;;;;5110166;28;20089;-71
2021/12/17 07:59:17;;;;;;;14.75;8.25;;;8.20;99.90;;;;;;5094107;28;20042;-71
2021/12/17 08:01:43;;;;;;;17.95;8.88;;;8.20;99.90;;;;;;5092231;28;20028;-71
2021/12/17 08:04:10;;;;;;;16.85;8.93;;;8.20;99.90;;;;;;5108595;28;20096;-71
2021/12/17 08:06:37;;;;;;;14.23;8.45;;;8.20;99.90;;;;;;5108904;28;20476;-71
2021/12/17 08:09:04;;;;;;;17.20;8.52;;;8.20;99.90;;;;;;5094089;28;20434;-71
2021/12/17 08:11:31;;;;;;;16.10;8.60;;;8.30;99.90;;;;;;5108381;28;20079;-71
2021/12/17 08:13:58;;;;;;;18.25;9.13;;;8.20;99.90;;;;;;5109609;28;20077;-71
2021/12/17 08:26:57;;;;;;;15.68;8.40;;;8.20;99.90;;;;;;5108625;28;20035;-71
2021/12/17 08:31:57;;;;;;;15.25;8.95;;;8.30;99.90;;;;;;5104979;28;20047;-71
2021/12/17 08:34:22;;;;;;;15.10;8.10;;;8.30;99.90;;;;;;5110909;28;20043;-71
2021/12/17 08:36:48;;;;;;;15.48;8.55;;;8.30;99.90;;;;;;5107169;28;20048;-71
2021/12/17 08:39:14;;;;;;;17.83;9.15;;;8.40;99.90;;;;;;5093841;28;20479;-71
2021/12/17 08:41:41;;;;;;;18.48;9.43;;;8.40;99.90;;;;;;5089903;28;20039;-71
2021/12/17 08:44:07;;;;;;;14.93;7.78;;;8.40;99.90;;;;;;5110975;28;20481;-78
2021/12/17 08:46:33;;;;;;;15.52;7.30;;;8.40;99.90;;;;;;5091541;28;20549;-71
2021/12/17 08:48:59;;;;;;;16.65;8.63;;;8.40;99.90;;;;;;5094156;28;20134;-71
2021/12/17 08:51:25;;;;;;;16.73;9.00;;;8.40;99.90;;;;;;5091873;28;20189;-71
2021/12/17 08:53:51;;;;;;;16.77;9.05;;;8.40;99.90;;;;;;5109573;28;20423;-71
2021/12/17 08:56:22;;;;;;;18.55;9.38;;;8.30;99.90;;;;;;5092843;28;20557;-71
2021/12/17 08:58:51;;;;;;;18.42;8.82;;;8.30;99.90;;;;;;5091191;28;20093;-71
2021/12/17 09:01:17;;;;;;;14.85;8.27;;;8.40;99.90;;;;;;5110315;28;20067;-71
2021/12/17 09:03:43;;;;;;;17.52;9.73;;;8.40;99.90;;;;;;5109998;28;20086;-71
2021/12/17 09:06:08;;;;;;;18.15;8.60;;;8.40;99.90;;;;;;5093545;28;20059;-71
2021/12/17 09:08:34;;;;;;;14.55;7.82;;;8.40;99.90;;;;;;5109104;28;20441;-71
2021/12/17 09:11:00;;;;;;;15.93;8.77;;;8.40;99.90;;;;;;5109145;28;20055;-71
2021/12/17 09:13:26;;;;;;;18.40;8.95;;;8.40;99.90;;;;;;5108417;28;20487;-71
2021/12/17 09:15:54;;;;;;;16.55;8.43;;;8.40;99.90;;;;;;5110873;28;20027;-71
2021/12/17 09:18:20;;;;;;;16.77;8.77;;;8.50;99.90;;;;;;5109411;28;20443;-71
2021/12/17 09:20:46;;;;;;;15.32;8.10;;;8.50;99.90;;;;;;5093478;28;20119;-71
2021/12/17 09:23:12;;;;;;;18.23;8.88;;;8.50;99.90;;;;;;5107770;28;20039;-71
2021/12/17 09:25:38;;;;;;;15.50;7.82;;;8.50;99.90;;;;;;5109827;28;20040;-71
2021/12/17 09:28:04;;;;;;;16.63;9.23;;;8.50;99.90;;;;;;5091387;28;20035;-71
2021/12/17 09:30:30;;;;;;;16.80;9.38;;;8.50;99.90;;;;;;5110649;28;20085;-71
2021/12/17 09:32:56;;;;;;;17.20;8.80;;;8.60;99.90;;;;;;5092316;28;20036;-71
2021/12/17 09:35:22;;;;;;;20.23;9.50;;;8.60;99.90;;;;;;5141202;27;20222;-71
2021/12/17 09:37:48;;;;;;;16.25;8.70;;;8.60;99.90;;;;;;5089234;28;20043;-71
2021/12/17 09:40:14;;;;;;;17.02;9.02;;;8.60;99.90;;;;;;5097002;28;20036;-71
2021/12/17 09:42:42;;;;;;;15.52;8.23;;;8.70;99.90;;;;;;5094758;28;20422;-71
2021/12/17 09:45:09;;;;;;;17.48;8.38;;;8.70;99.90;;;;;;5097522;28;20279;-71
2021/12/17 09:47:35;;;;;;;17.90;9.48;;;8.70;99.90;;;;;;5112979;28;20096;-71
2021/12/17 09:50:01;;;;;;;17.27;8.57;;;8.70;99.90;;;;;;5096513;28;20514;-71
2021/12/17 09:52:26;;;;;;;15.88;8.52;;;8.70;99.90;;;;;;5111442;28;20114;-71
2021/12/17 09:54:57;;;;;;;18.60;8.73;;;8.70;99.90;;;;;;5113969;28;20046;-71
2021/12/17 09:57:22;;;;;;;21.55;9.45;;;8.80;99.90;;;;;;5113178;28;20046;-71
2021/12/17 09:59:48;;;;;;;17.30;8.90;;;8.70;99.90;;;;;;5113657;28;20040;-71
2021/12/17 10:02:14;;;;;;;15.77;8.15;;;8.70;99.90;;;;;;5094669;28;20024;-71
2021/12/17 10:04:45;;;;;;;15.65;8.88;;;8.80;99.90;;;;;;5111131;28;20511;-71
2021/12/17 10:07:27;;;;;;;15.23;8.30;;;8.80;99.90;;;;;;5113613;28;20055;-71
2021/12/17 10:09:53;;;;;;;17.20;9.20;;;8.80;99.90;;;;;;5091442;28;20040;-71
2021/12/17 10:12:24;;;;;;;15.77;8.90;;;8.80;99.90;;;;;;5112916;28;20048;-71
2021/12/17 10:15:02;;;;;;;15.85;8.50;;;8.80;99.90;;;;;;5110987;28;20112;-71
2021/12/17 10:17:27;;;;;;;17.77;9.18;;;8.80;99.90;;;;;;5095205;28;20415;-71
2021/12/17 10:19:53;;;;;;;15.55;8.13;;;8.80;99.90;;;;;;5110832;28;20035;-71
2021/12/17 10:22:21;;;;;;;17.15;8.57;;;8.80;99.90;;;;;;5113300;28;20455;-71
2021/12/17 10:25:07;;;;;;;15.40;8.65;;;8.80;99.90;;;;;;5111807;28;20039;-71
2021/12/17 10:27:35;;;;;;;15.88;8.35;;;8.90;99.90;;;;;;5110918;28;20058;-71
2021/12/17 10:30:13;;;;;;;18.30;8.90;;;8.90;99.90;;;;;;5093077;28;20058;-71
2021/12/17 10:32:41;;;;;;;15.13;8.57;;;8.90;99.90;;;;;;5125689;27;20043;-71
2021/12/17 10:35:12;;;;;;;17.38;8.43;;;8.90;99.90;;;;;;5110065;28;20043;-71
2021/12/17 10:37:44;;;;;;;14.25;7.97;;;8.90;99.90;;;;;;5111019;28;20035;-71
2021/12/17 10:40:14;;;;;;;;;;;8.90;99.90;;;;;;5110330;28;20028;-71
2021/12/17 10:42:42;;;;;;;15.23;7.82;;;8.90;99.90;;;;;;5110711;28;19939;-71
2021/12/17 10:45:12;;;;;;;15.88;8.23;;;9.00;99.90;;;;;;5103431;28;20073;-71
2021/12/17 10:47:47;;;;;;;19.58;8.68;;;9.00;99.90;;;;;;5113158;28;20110;-71
2021/12/17 10:50:23;;;;;;;15.55;8.52;;;9.00;99.90;;;;;;5111447;28;20396;-71
2021/12/17 10:52:55;;;;;;;16.35;8.00;;;9.00;99.90;;;;;;5109099;28;20043;-71
2021/12/17 10:55:24;;;;;;;17.80;8.68;;;9.10;99.90;;;;;;5113318;28;20376;-71
2021/12/17 10:57:57;;;;;;;14.52;7.68;;;9.10;99.90;;;;;;5110846;28;20110;-71
2021/12/17 11:00:22;;;;;;;14.45;8.20;;;9.10;99.90;;;;;;5095443;28;20047;-71
2021/12/17 11:02:50;;;;;;;16.15;8.45;;;9.10;99.90;;;;;;5093615;28;20388;-71
2021/12/17 11:05:16;;;;;;;17.50;8.48;;;9.10;99.90;;;;;;5112905;28;20400;-71
2021/12/17 11:07:46;;;;;;;18.63;8.68;;;9.20;99.90;;;;;;5110778;28;20028;-71
2021/12/17 11:10:13;;;;;;;15.45;7.65;;;9.20;99.90;;;;;;5108630;28;20114;-71
2021/12/17 11:12:41;;;;;;;17.02;8.57;;;9.20;99.90;;;;;;5094900;28;20369;-71
2021/12/17 11:15:25;;;;;;;15.52;8.32;;;9.20;99.90;;;;;;5112190;28;20125;-71
2021/12/17 11:17:54;;;;;;;17.10;8.75;;;9.20;99.90;;;;;;5092188;28;20031;-71
2021/12/17 11:20:29;;;;;;;16.98;9.18;;;9.20;99.90;;;;;;5090031;28;20039;-71
2021/12/17 11:22:57;;;;;;;20.10;8.45;;;9.20;99.90;;;;;;5093774;28;20034;-71
2021/12/17 11:25:24;;;;;;;15.48;8.48;;;9.20;99.90;;;;;;5108604;28;20043;-71
2021/12/17 11:27:52;;;;;;;16.80;8.65;;;9.20;99.90;;;;;;5126008;27;20122;-71
2021/12/17 11:30:26;;;;;;;14.95;8.20;;;9.30;99.90;;;;;;5111356;28;20043;-71
2021/12/17 11:32:53;;;;;;;16.92;9.13;;;9.30;99.90;;;;;;5143999;27;20104;-71
2021/12/17 11:35:22;;;;;;;14.85;8.32;;;9.30;99.90;;;;;;5113947;27;20484;-71
2021/12/17 11:37:51;;;;;;;14.50;8.25;;;9.30;99.90;;;;;;5110085;28;20154;-71
2021/12/17 11:40:23;;;;;;;16.38;8.57;;;9.30;99.90;;;;;;5111696;28;20040;-71
2021/12/17 11:43:35;;;;;;;17.60;7.90;;;9.30;99.90;;;;;;5110964;28;20032;-71
2021/12/17 11:46:12;;;;;;;14.88;7.30;;;9.30;99.90;;;;;;5092475;28;20456;-70
2021/12/17 11:48:38;;;;;;;12.52;7.10;;;9.30;99.90;;;;;;5110065;28;20063;-71
2021/12/17 11:51:10;;;;;;;15.35;7.53;;;9.40;99.90;;;;;;5093928;28;20063;-71
2021/12/17 11:53:52;;;;;;;16.88;7.72;;;9.40;99.90;;;;;;5110250;28;20039;-71
2021/12/17 11:56:40;;;;;;;13.43;7.90;;;9.30;99.90;;;;;;5111478;28;20040;-71
2021/12/17 11:59:07;;;;;;;14.88;7.45;;;9.30;99.90;;;;;;5092863;28;20075;-71
2021/12/17 12:02:00;;;;;;;16.67;7.72;;;9.40;99.90;;;;;;5093729;28;20035;-71
2021/12/17 12:04:32;;;;;;;11.88;6.50;;;9.40;99.90;;;;;;5109990;28;20052;-71
2021/12/17 12:07:06;;;;;;;14.60;7.50;;;9.40;99.90;;;;;;5120625;27;20503;-70
2021/12/17 12:09:58;;;;;;;11.40;6.75;;;9.40;99.90;;;;;;5094191;28;20076;-71
2021/12/17 12:12:28;;;;;;;13.65;6.35;;;9.40;99.90;;;;;;5109121;28;20492;-71
2021/12/17 12:15:14;;;;;;;14.30;6.50;;;9.40;99.90;;;;;;5093682;28;20043;-71
2021/12/17 12:18:03;;;;;;;11.73;6.40;;;9.50;99.90;;;;;;5127782;27;20399;-71
2021/12/17 12:20:50;;;;;;;13.18;6.78;;;9.50;99.90;;;;;;5093029;28;20213;-71
2021/12/17 12:23:21;;;;;;;11.27;6.00;;;9.50;99.90;;;;;;5109563;28;20043;-71
2021/12/17 12:26:11;;;;;;;11.25;5.57;;;9.50;99.90;;;;;;5109153;28;20388;-71
2021/12/17 12:28:46;;;;;;;11.40;6.07;;;9.50;99.90;;;;;;5108872;28;20095;-71
2021/12/17 12:31:17;;;;;;;10.90;5.68;;;9.60;99.90;;;;;;5108858;28;20039;-71
2021/12/17 12:34:05;;;;;;;11.00;5.38;;;9.60;99.90;;;;;;5093964;28;20080;-71
2021/12/17 12:36:58;;;;;;;10.82;5.43;;;9.50;99.90;;;;;;5085500;28;20082;-71
2021/12/17 12:39:43;;;;;;;11.82;5.45;;;9.50;99.90;;;;;;5092823;28;20055;-71
2021/12/17 12:42:30;;;;;;;9.20;5.07;;;9.50;99.90;;;;;;5093585;28;20036;-71
2021/12/17 12:44:55;;;;;;;9.60;4.40;;;9.50;99.90;;;;;;5091591;28;20043;-71
2021/12/17 12:47:22;;;;;;;7.78;3.90;;;9.50;99.90;;;;;;5091962;28;20067;-71
2021/12/17 12:50:04;;;;;;;8.00;3.70;;;9.60;99.90;;;;;;5091147;28;20073;-71
2021/12/17 12:52:38;;;;;;;8.13;3.40;;;9.50;99.90;;;;;;5104334;28;20074;-71
2021/12/17 12:55:27;;;;;;;7.28;3.42;;;9.50;99.90;;;;;;5094013;28;20487;-71
2021/12/17 12:57:59;;;;;;;7.70;3.53;;;9.50;99.90;;;;;;5086984;28;20421;-71
2021/12/17 13:00:34;;;;;;;6.97;3.10;;;9.50;99.90;;;;;;5091970;28;20118;-71
2021/12/17 13:03:07;;;;;;;7.65;3.10;;;9.60;99.90;;;;;;5126476;28;20492;-71
2021/12/17 13:05:34;;;;;;;5.45;2.60;;;9.50;99.90;;;;;;5111640;28;20051;-71
2021/12/17 13:08:03;;;;;;;4.32;2.00;;;9.60;99.90;;;;;;5111645;28;20510;-71
2021/12/17 13:10:36;;;;;;;5.18;2.28;;;9.60;99.90;;;;;;5090721;28;20499;-71
2021/12/17 13:13:06;;;;;;;3.95;1.60;;;9.60;99.90;;;;;;5093756;28;20506;-71
2021/12/17 13:21:04;;;;;;;3.25;1.20;;;9.50;99.90;;;;;;5083862;28;20048;-72
2021/12/17 13:23:35;;;;;;;4.30;1.52;;;9.50;99.90;;;;;;5097819;28;20391;-80
2021/12/17 13:26:04;;;;;;;4.93;1.85;;;9.50;99.90;;;;;;5115086;28;20522;-81
2021/12/17 13:29:00;;;;;;;2.47;1.63;;;9.60;99.90;;;;;;5097118;28;20080;-76
2021/12/17 13:31:33;;;;;;;5.78;2.05;;;9.50;99.90;;;;;;5115699;28;20126;-78
2021/12/17 13:33:59;;;;;;;3.40;1.80;;;9.50;99.90;;;;;;5097244;28;20039;-78
2021/12/17 13:36:24;;;;;;;5.00;2.08;;;9.50;99.90;;;;;;5091305;28;20075;-78
2021/12/17 13:38:57;;;;;;;5.38;2.45;;;9.50;99.90;;;;;;5113765;28;20044;-77
2021/12/17 13:41:44;;;;;;;6.00;2.30;;;9.50;99.90;;;;;;5097148;28;20028;-77
2021/12/17 13:44:27;;;;;;;5.43;2.40;;;9.50;99.90;;;;;;5149535;27;20076;-77
2021/12/17 13:47:05;;;;;;;14.82;2.78;;;9.50;99.90;;;;;;5094243;28;20054;-77
2021/12/17 13:49:31;;;;;;;6.80;2.53;;;9.50;99.90;;;;;;5112924;28;20437;-77
2021/12/17 13:51:56;;;;;;;8.45;3.20;;;9.50;99.90;;;;;;5096114;28;20040;-77
2021/12/17 13:54:22;;;;;;;11.98;2.97;;;9.50;99.90;;;;;;5147610;27;20488;-77
2021/12/17 13:57:02;;;;;;;18.35;3.33;;;9.50;99.90;;;;;;5096095;28;20105;-77
2021/12/17 13:59:33;;;;;;;8.45;2.70;;;9.50;99.90;;;;;;5125719;27;20084;-78
2021/12/17 14:02:05;;;;;;;12.55;3.42;;;9.40;99.90;;;;;;5108627;28;20084;-77
2021/12/17 14:04:31;;;;;;;16.70;3.63;;;9.50;99.90;;;;;;5095953;28;20095;-77
2021/12/17 14:07:03;;;;;;;30.20;4.95;;;9.50;99.90;;;;;;5094768;28;20044;-81
2021/12/17 14:09:28;;;;;;;15.18;3.60;;;9.40;99.90;;;;;;5095028;28;20039;-78
2021/12/17 14:11:57;;;;;;;20.50;3.90;;;9.50;99.90;;;;;;5112428;28;20420;-80
2021/12/17 14:14:28;;;;;;;8.98;3.33;;;9.50;99.90;;;;;;5095299;28;20040;-81
2021/12/17 14:16:59;;;;;;;16.67;3.95;;;9.50;99.90;;;;;;5112162;28;20044;-82
2021/12/17 14:20:00;;;;;;;19.35;4.47;;;9.50;99.90;;;;;;5096244;28;20042;-79
2021/12/17 14:22:31;;;;;;;15.57;3.45;;;9.40;99.90;;;;;;5081761;28;20048;-80
2021/12/17 14:24:58;;;;;;;12.48;3.53;;;9.50;99.90;;;;;;5096232;28;20085;-81
2021/12/17 14:27:44;;;;;;;9.65;3.40;;;9.50;99.90;;;;;;5108265;28;20123;-81
2021/12/17 14:30:11;;;;;;;6.68;3.90;;;9.50;99.90;;;;;;5096653;28;20067;-76
2021/12/17 14:32:45;;;;;;;7.00;3.58;;;9.50;99.90;;;;;;5110688;28;20066;-75
2021/12/17 14:35:11;;;;;;;7.60;3.70;;;9.50;99.90;;;;;;5095933;28;20042;-76
2021/12/17 14:37:50;;;;;;;9.02;3.47;;;9.50;99.90;;;;;;5109782;28;20040;-77
2021/12/17 14:40:52;;;;;;;11.52;3.95;;;9.50;99.90;;;;;;5113398;28;20062;-77
2021/12/17 14:43:41;;;;;;;7.47;3.75;;;9.40;99.90;;;;;;5094823;28;20038;-72
2021/12/17 14:46:27;;;;;;;14.57;4.72;;;9.40;99.90;;;;;;5093408;28;20032;-75
2021/12/17 14:58:42;;;;;;;12.07;4.15;;;9.40;99.90;;;;;;5109382;28;20403;-76
2021/12/17 15:05:59;;;;;;;44.03;7.50;;;9.50;99.90;;;;;;5111254;28;20457;-76
2021/12/17 15:08:25;;;;;;;30.80;6.47;;;9.50;99.90;;;;;;5112446;28;20036;-75
2021/12/17 15:10:53;;;;;;;19.38;5.32;;;9.50;99.90;;;;;;5104585;28;20047;-79
2021/12/17 15:13:18;;;;;;;16.27;4.60;;;9.50;99.90;;;;;;5138697;27;20040;-77
2021/12/17 15:15:44;;;;;;;24.08;5.07;;;9.50;99.90;;;;;;5095377;28;20042;-77
2021/12/17 15:18:17;;;;;;;9.30;4.35;;;9.50;99.90;;;;;;5111601;28;20036;-71
2021/12/17 15:20:56;;;;;;;9.38;4.40;;;9.50;99.90;;;;;;5095284;28;20039;-71
2021/12/17 15:23:23;;;;;;;7.38;4.28;;;9.50;99.90;;;;;;5095538;28;20043;-72
2021/12/17 15:25:50;;;;;;;7.95;4.28;;;9.40;99.90;;;;;;5088070;28;20037;-71
2021/12/17 15:28:18;;;;;;;8.43;4.93;;;9.40;99.90;;;;;;5112068;28;20042;-72
2021/12/17 15:30:47;;;;;;;8.20;4.10;;;9.40;99.90;;;;;;5092957;28;20032;-72
2021/12/17 15:33:13;;;;;;;7.47;4.22;;;9.40;99.90;;;;;;5090025;28;20044;-71
2021/12/17 15:35:40;;;;;;;10.38;4.43;;;9.40;99.90;;;;;;5108243;28;20122;-71
2021/12/17 15:38:08;;;;;;;7.63;4.43;;;9.40;99.90;;;;;;5094705;28;20043;-71
2021/12/17 15:40:35;;;;;;;6.90;3.92;;;9.40;99.90;;;;;;5109022;28;20039;-71
2021/12/17 15:43:02;;;;;;;8.52;4.30;;;9.30;99.90;;;;;;5110664;28;20036;-71
2021/12/17 15:45:34;;;;;;;7.57;4.38;;;9.30;99.90;;;;;;5092074;28;20403;-71
2021/12/17 15:47:59;;;;;;;7.72;4.50;;;9.30;99.90;;;;;;5110424;28;20038;-71
2021/12/17 15:50:26;;;;;;;8.82;4.40;;;9.30;99.90;;;;;;5111450;28;20035;-71
2021/12/17 15:52:52;;;;;;;9.00;4.65;;;9.30;99.90;;;;;;5095782;28;20127;-71
2021/12/17 15:55:23;;;;;;;8.20;4.63;;;9.30;99.90;;;;;;5112479;28;20503;-70
2021/12/17 15:57:49;;;;;;;7.15;4.05;;;9.30;99.90;;;;;;5095715;28;20384;-71
2021/12/17 16:00:17;;;;;;;7.80;4.50;;;9.30;99.90;;;;;;5112542;28;20072;-71
2021/12/17 16:02:43;;;;;;;9.05;5.10;;;9.30;99.90;;;;;;5095490;28;20034;-71
2021/12/17 16:05:11;;;;;;;9.68;5.60;;;9.30;99.90;;;;;;5112489;28;20042;-71
2021/12/17 16:07:37;;;;;;;8.35;5.15;;;9.30;99.90;;;;;;5112681;28;20043;-71